Time;durP1;ratioP1;P1;durP2;ratioP2;P2;SDS_P1;SDS_P2;PMS_P1;PMS_P2;Temp;Humidity;BMP_temperature;BMP_pressure;BME280_temperature;BME280_humidity;BME280_pressure;Samples;Min_cycle;Max_cycle;Signal;HPM_P1;HPM_P2
2023/12/19 00:01:13;;;;;;;31.65;19.52;;;;;;;;;;5073940;28;20038;-70
2023/12/19 00:03:38;;;;;;;40.33;20.52;;;;;;;;;;5073508;28;20104;-71
2023/12/19 00:06:04;;;;;;;25.17;14.90;;;;;;;;;;5073732;28;20124;-69
2023/12/19 00:08:29;;;;;;;25.75;15.00;;;;;;;;;;5073756;28;20044;-70
2023/12/19 00:10:55;;;;;;;27.23;14.60;;;;;;;;;;5073443;28;20121;-71
2023/12/19 00:13:20;;;;;;;22.77;13.38;;;;;;;;;;5055700;28;20082;-69
2023/12/19 00:15:47;;;;;;;23.65;13.18;;;;;;;;;;5073426;28;20015;-70
2023/12/19 00:18:12;;;;;;;21.30;13.10;;;;;;;;;;5055443;28;20106;-70
2023/12/19 00:20:38;;;;;;;23.13;12.52;;;;;;;;;;5072527;28;20024;-71
2023/12/19 00:23:03;;;;;;;20.70;12.77;;;;;;;;;;5072608;28;20032;-69
2023/12/19 00:25:30;;;;;;;22.80;12.93;;;;;;;;;;5055057;28;20143;-70
2023/12/19 00:27:56;;;;;;;21.35;13.68;;;;;;;;;;5054361;28;20052;-69
2023/12/19 00:30:21;;;;;;;17.67;11.90;;;;;;;;;;5054777;28;20077;-70
2023/12/19 00:32:47;;;;;;;17.50;12.10;;;;;;;;;;5073181;28;20470;-70
2023/12/19 00:35:12;;;;;;;17.83;11.57;;;;;;;;;;5054877;28;20089;-73
2023/12/19 00:37:39;;;;;;;19.88;12.27;;;;;;;;;;5073261;28;20080;-75
2023/12/19 00:40:05;;;;;;;22.98;15.27;;;;;;;;;;5073036;28;20039;-73
2023/12/19 00:42:31;;;;;;;22.20;13.70;;;;;;;;;;5054902;28;20032;-75
2023/12/19 00:44:56;;;;;;;17.50;11.88;;;;;;;;;;5072881;28;20120;-73
2023/12/19 00:47:21;;;;;;;19.98;11.88;;;;;;;;;;5072958;28;20666;-73
2023/12/19 00:49:47;;;;;;;19.17;11.20;;;;;;;;;;5054558;28;20037;-73
2023/12/19 00:52:13;;;;;;;15.85;10.70;;;;;;;;;;5072706;28;20094;-72
2023/12/19 00:54:38;;;;;;;20.35;10.63;;;;;;;;;;5072430;28;20047;-72
2023/12/19 00:57:04;;;;;;;17.45;10.60;;;;;;;;;;5072464;28;20032;-73
2023/12/19 00:59:29;;;;;;;17.08;10.63;;;;;;;;;;5072590;28;20486;-72
2023/12/19 01:01:56;;;;;;;18.08;10.50;;;;;;;;;;5072380;28;20036;-72
2023/12/19 01:04:21;;;;;;;17.80;10.88;;;;;;;;;;5072393;28;20064;-73
2023/12/19 01:06:46;;;;;;;17.67;11.18;;;;;;;;;;5072376;28;20064;-73
2023/12/19 01:09:13;;;;;;;19.15;10.93;;;;;;;;;;5072428;28;20044;-74
2023/12/19 01:11:38;;;;;;;15.82;10.68;;;;;;;;;;5072641;28;20043;-75
2023/12/19 01:14:03;;;;;;;15.38;9.40;;;;;;;;;;5072112;28;20471;-71
2023/12/19 01:16:29;;;;;;;16.17;9.73;;;;;;;;;;5071922;28;20043;-76
2023/12/19 01:18:55;;;;;;;13.80;9.88;;;;;;;;;;5054469;28;20035;-74
2023/12/19 01:21:20;;;;;;;14.60;9.32;;;;;;;;;;5072255;28;20025;-73
2023/12/19 01:23:46;;;;;;;15.85;9.65;;;;;;;;;;5054309;28;20025;-74
2023/12/19 01:26:11;;;;;;;15.70;10.38;;;;;;;;;;5071884;28;20040;-71
2023/12/19 01:28:40;;;;;;;15.10;10.55;;;;;;;;;;5071167;28;20051;-71
2023/12/19 01:31:05;;;;;;;16.00;9.82;;;;;;;;;;5071226;28;20040;-71
2023/12/19 01:33:30;;;;;;;13.30;9.32;;;;;;;;;;5071430;28;20037;-72
2023/12/19 01:35:56;;;;;;;14.35;9.93;;;;;;;;;;5071307;28;20042;-69
2023/12/19 01:38:21;;;;;;;15.15;9.60;;;;;;;;;;5071245;28;20214;-70
2023/12/19 01:40:47;;;;;;;12.43;9.02;;;;;;;;;;5071304;28;20035;-71
2023/12/19 01:43:21;;;;;;;12.68;8.68;;;;;;;;;;5071111;28;20055;-72
2023/12/19 01:45:48;;;;;;;11.35;8.48;;;;;;;;;;5071163;28;20037;-71
2023/12/19 01:48:14;;;;;;;13.95;8.65;;;;;;;;;;5053388;28;20063;-71
2023/12/19 01:50:40;;;;;;;10.35;7.72;;;;;;;;;;5070870;28;20059;-70
2023/12/19 01:53:06;;;;;;;12.52;7.85;;;;;;;;;;5070798;28;20085;-70
2023/12/19 01:55:31;;;;;;;10.95;8.10;;;;;;;;;;5070639;28;20049;-71
2023/12/19 01:57:57;;;;;;;10.88;8.38;;;;;;;;;;5071106;28;20029;-70
2023/12/19 02:00:22;;;;;;;17.85;10.02;;;;;;;;;;5071045;28;20033;-70
2023/12/19 02:02:49;;;;;;;11.07;8.40;;;;;;;;;;5070958;28;20025;-71
2023/12/19 02:05:15;;;;;;;13.73;9.07;;;;;;;;;;5036162;28;20040;-71
2023/12/19 02:07:40;;;;;;;10.65;7.97;;;;;;;;;;5070862;28;20032;-71
2023/12/19 02:10:06;;;;;;;8.52;6.75;;;;;;;;;;5070959;28;20037;-72
2023/12/19 02:12:31;;;;;;;11.50;7.78;;;;;;;;;;5052726;28;20390;-71
2023/12/19 02:14:57;;;;;;;13.35;7.80;;;;;;;;;;5052995;28;20043;-72
2023/12/19 02:17:23;;;;;;;10.57;7.40;;;;;;;;;;5070918;28;20043;-71
2023/12/19 02:19:50;;;;;;;10.00;7.38;;;;;;;;;;5071332;28;20024;-71
2023/12/19 02:22:15;;;;;;;8.80;6.97;;;;;;;;;;5052762;28;20031;-71
2023/12/19 02:24:41;;;;;;;7.85;6.43;;;;;;;;;;5071094;28;20382;-71
2023/12/19 02:27:08;;;;;;;7.88;5.72;;;;;;;;;;5070409;28;20032;-71
2023/12/19 02:29:33;;;;;;;9.25;6.53;;;;;;;;;;5070926;28;20109;-71
2023/12/19 02:32:00;;;;;;;7.35;6.18;;;;;;;;;;5052624;28;20111;-71
2023/12/19 02:34:25;;;;;;;9.45;6.53;;;;;;;;;;5070759;28;20041;-71
2023/12/19 02:36:50;;;;;;;7.55;6.70;;;;;;;;;;5052526;28;20028;-71
2023/12/19 02:39:16;;;;;;;8.13;6.82;;;;;;;;;;5071000;28;20027;-71
2023/12/19 02:41:41;;;;;;;9.65;7.28;;;;;;;;;;5070809;28;20107;-71
2023/12/19 02:44:06;;;;;;;9.57;7.60;;;;;;;;;;5070364;28;20539;-71
2023/12/19 02:46:32;;;;;;;8.77;7.53;;;;;;;;;;5070649;28;20048;-72
2023/12/19 02:48:58;;;;;;;8.32;6.68;;;;;;;;;;5070336;28;20056;-71
2023/12/19 02:51:27;;;;;;;8.70;6.90;;;;;;;;;;5070538;28;20107;-70
2023/12/19 02:53:54;;;;;;;8.88;6.78;;;;;;;;;;5070295;28;20032;-70
2023/12/19 02:56:19;;;;;;;10.15;6.82;;;;;;;;;;5070405;28;20036;-70
2023/12/19 02:58:45;;;;;;;20.05;8.57;;;;;;;;;;5070442;28;20040;-70
2023/12/19 03:01:10;;;;;;;16.33;8.55;;;;;;;;;;5070017;28;20035;-70
2023/12/19 03:03:36;;;;;;;15.63;11.60;;;;;;;;;;5052175;28;20055;-71
2023/12/19 03:06:01;;;;;;;9.68;7.43;;;;;;;;;;5070201;28;20105;-71
2023/12/19 03:08:27;;;;;;;11.65;8.55;;;;;;;;;;5069844;28;20150;-71
2023/12/19 03:10:52;;;;;;;8.65;6.53;;;;;;;;;;5070123;28;20389;-70
2023/12/19 03:13:19;;;;;;;6.05;5.50;;;;;;;;;;5069955;28;20036;-71
2023/12/19 03:15:45;;;;;;;7.57;5.80;;;;;;;;;;5051874;28;20048;-71
2023/12/19 03:18:10;;;;;;;7.68;6.70;;;;;;;;;;5069918;28;20052;-71
2023/12/19 03:20:35;;;;;;;10.20;8.23;;;;;;;;;;5070021;28;20086;-72
2023/12/19 03:23:01;;;;;;;8.10;5.72;;;;;;;;;;5069798;28;20072;-71
2023/12/19 03:25:26;;;;;;;7.53;5.95;;;;;;;;;;5069835;28;20040;-71
2023/12/19 03:27:52;;;;;;;6.47;5.65;;;;;;;;;;5069471;28;20041;-71
2023/12/19 03:30:17;;;;;;;10.48;8.32;;;;;;;;;;5069415;28;20048;-70
2023/12/19 03:32:42;;;;;;;6.70;5.00;;;;;;;;;;5069755;28;20040;-71
2023/12/19 03:35:10;;;;;;;6.28;5.25;;;;;;;;;;5069902;28;20068;-71
2023/12/19 03:37:36;;;;;;;7.40;6.45;;;;;;;;;;5069928;28;20067;-70
2023/12/19 03:40:03;;;;;;;18.27;12.27;;;;;;;;;;5055188;28;20439;-71
2023/12/19 03:42:28;;;;;;;8.10;6.50;;;;;;;;;;5073602;28;20111;-71
2023/12/19 03:44:54;;;;;;;8.07;5.80;;;;;;;;;;5073902;28;20112;-72
2023/12/19 03:47:19;;;;;;;7.82;5.80;;;;;;;;;;5074188;28;20090;-72
2023/12/19 03:49:45;;;;;;;6.65;5.57;;;;;;;;;;5055280;28;20025;-71
2023/12/19 03:52:10;;;;;;;5.88;5.32;;;;;;;;;;5055638;28;20032;-71
2023/12/19 03:54:35;;;;;;;7.90;6.20;;;;;;;;;;5073714;28;20637;-71
2023/12/19 03:57:01;;;;;;;41.80;19.17;;;;;;;;;;5056127;28;20386;-72
2023/12/19 03:59:27;;;;;;;35.22;18.52;;;;;;;;;;5056063;28;20116;-71
2023/12/19 04:01:52;;;;;;;43.53;27.20;;;;;;;;;;5074060;28;20478;-73
2023/12/19 04:04:18;;;;;;;20.95;14.93;;;;;;;;;;5055644;28;20134;-72
2023/12/19 04:06:43;;;;;;;18.05;11.45;;;;;;;;;;5073759;28;20035;-73
2023/12/19 04:09:13;;;;;;;48.05;20.30;;;;;;;;;;5073905;28;20435;-72
2023/12/19 04:11:38;;;;;;;52.80;18.27;;;;;;;;;;5073969;28;20020;-73
2023/12/19 04:14:05;;;;;;;54.78;20.95;;;;;;;;;;5074098;28;20382;-73
2023/12/19 04:16:31;;;;;;;40.05;15.82;;;;;;;;;;5074281;28;20036;-73
2023/12/19 04:18:56;;;;;;;23.35;11.00;;;;;;;;;;5074224;28;20033;-73
2023/12/19 04:21:22;;;;;;;16.15;9.20;;;;;;;;;;5073836;28;20501;-73
2023/12/19 04:23:47;;;;;;;16.80;7.90;;;;;;;;;;5073602;28;20025;-72
2023/12/19 04:26:19;;;;;;;14.60;8.32;;;;;;;;;;5073344;28;20028;-72
2023/12/19 04:28:45;;;;;;;14.48;8.35;;;;;;;;;;5073468;28;20504;-73
2023/12/19 04:31:10;;;;;;;15.82;9.90;;;;;;;;;;5074057;28;20040;-73
2023/12/19 04:33:35;;;;;;;22.48;14.20;;;;;;;;;;5075732;28;20470;-75
2023/12/19 04:36:01;;;;;;;18.85;12.05;;;;;;;;;;5057644;28;20028;-74
2023/12/19 04:38:26;;;;;;;14.73;10.02;;;;;;;;;;5075687;28;20483;-73
2023/12/19 04:40:51;;;;;;;15.05;8.30;;;;;;;;;;5057800;28;20103;-75
2023/12/19 04:43:17;;;;;;;12.85;7.65;;;;;;;;;;5074883;28;20177;-75
2023/12/19 04:45:43;;;;;;;20.98;11.40;;;;;;;;;;5057849;28;20358;-75
2023/12/19 04:48:08;;;;;;;23.00;13.82;;;;;;;;;;5075150;28;20033;-74
2023/12/19 04:50:38;;;;;;;15.82;11.63;;;;;;;;;;5075198;28;20020;-76
2023/12/19 04:53:03;;;;;;;16.15;11.30;;;;;;;;;;5075260;28;20040;-76
2023/12/19 04:55:29;;;;;;;16.52;11.77;;;;;;;;;;5075155;28;20031;-76
2023/12/19 04:57:55;;;;;;;17.23;11.52;;;;;;;;;;5056516;28;20024;-74
2023/12/19 05:00:20;;;;;;;18.92;12.90;;;;;;;;;;5056372;28;20091;-75
2023/12/19 05:02:46;;;;;;;17.38;12.32;;;;;;;;;;5038705;28;20112;-74
2023/12/19 05:05:11;;;;;;;13.93;10.80;;;;;;;;;;5073072;28;20383;-74
2023/12/19 05:07:37;;;;;;;14.00;9.77;;;;;;;;;;5074258;28;20029;-73
2023/12/19 05:10:02;;;;;;;20.13;10.98;;;;;;;;;;5074319;28;20039;-74
2023/12/19 05:12:28;;;;;;;22.27;11.20;;;;;;;;;;5056237;28;20036;-71
2023/12/19 05:14:54;;;;;;;21.67;10.02;;;;;;;;;;5074787;28;20029;-76
2023/12/19 05:17:21;;;;;;;15.60;9.48;;;;;;;;;;5075081;28;20028;-78
2023/12/19 05:19:46;;;;;;;19.52;9.38;;;;;;;;;;5040524;28;20064;-74
2023/12/19 05:22:11;;;;;;;26.85;14.95;;;;;;;;;;5074625;28;20071;-71
2023/12/19 05:24:38;;;;;;;33.53;17.17;;;;;;;;;;5075042;28;20028;-72
2023/12/19 05:27:06;;;;;;;39.22;21.02;;;;;;;;;;5056314;28;20043;-72
2023/12/19 05:29:33;;;;;;;32.10;17.00;;;;;;;;;;5087122;22;20132;-73
2023/12/19 05:31:59;;;;;;;26.67;15.77;;;;;;;;;;5074521;28;20459;-73
2023/12/19 05:34:24;;;;;;;31.58;17.88;;;;;;;;;;5072826;28;20044;-72
2023/12/19 05:36:50;;;;;;;29.38;18.50;;;;;;;;;;5056318;28;20028;-72
2023/12/19 05:39:18;;;;;;;26.90;16.65;;;;;;;;;;5074401;28;20021;-73
2023/12/19 05:41:43;;;;;;;26.10;14.80;;;;;;;;;;5056141;28;20016;-71
2023/12/19 05:44:11;;;;;;;24.52;15.38;;;;;;;;;;5074245;28;20515;-72
2023/12/19 05:46:37;;;;;;;21.30;12.77;;;;;;;;;;5074477;28;20028;-71
2023/12/19 05:49:02;;;;;;;19.25;11.95;;;;;;;;;;5056159;28;20442;-71
2023/12/19 05:51:28;;;;;;;17.33;12.13;;;;;;;;;;5073877;28;20021;-71
2023/12/19 05:53:53;;;;;;;17.55;12.52;;;;;;;;;;5074257;28;20044;-72
2023/12/19 05:56:19;;;;;;;17.20;11.82;;;;;;;;;;5073803;28;20387;-70
2023/12/19 05:58:46;;;;;;;15.25;11.20;;;;;;;;;;5073836;28;20477;-70
2023/12/19 06:01:12;;;;;;;14.85;11.10;;;;;;;;;;5073651;28;20089;-69
2023/12/19 06:03:37;;;;;;;13.88;9.88;;;;;;;;;;5074380;28;20024;-69
2023/12/19 06:06:04;;;;;;;19.60;11.50;;;;;;;;;;5056471;28;20082;-70
2023/12/19 06:08:29;;;;;;;26.60;19.83;;;;;;;;;;5087144;22;20559;-70
2023/12/19 06:10:55;;;;;;;21.25;14.40;;;;;;;;;;5055376;28;20029;-71
2023/12/19 06:13:21;;;;;;;15.32;11.02;;;;;;;;;;5073674;28;20044;-72
2023/12/19 06:15:46;;;;;;;12.05;8.00;;;;;;;;;;5073569;28;20475;-71
2023/12/19 06:18:11;;;;;;;13.43;9.23;;;;;;;;;;5055837;28;20363;-70
2023/12/19 06:20:37;;;;;;;14.15;10.35;;;;;;;;;;5073936;28;20385;-70
2023/12/19 06:23:02;;;;;;;108.50;46.83;;;;;;;;;;5073577;28;20032;-69
2023/12/19 06:25:28;;;;;;;93.47;43.50;;;;;;;;;;5055271;28;20119;-69
2023/12/19 06:27:56;;;;;;;56.58;30.85;;;;;;;;;;5072304;28;20039;-69
2023/12/19 06:30:21;;;;;;;59.33;30.50;;;;;;;;;;5055763;28;20036;-69
2023/12/19 06:32:47;;;;;;;65.57;32.25;;;;;;;;;;5055487;28;20029;-69
2023/12/19 06:35:12;;;;;;;42.80;22.15;;;;;;;;;;5073083;28;20060;-68
2023/12/19 06:37:38;;;;;;;33.88;17.40;;;;;;;;;;5073628;28;20455;-69
2023/12/19 06:40:04;;;;;;;32.08;17.73;;;;;;;;;;5073699;28;20036;-69
2023/12/19 06:42:29;;;;;;;30.38;19.58;;;;;;;;;;5055459;28;20067;-69
2023/12/19 06:44:55;;;;;;;32.83;20.45;;;;;;;;;;5073377;28;20081;-69
2023/12/19 06:47:20;;;;;;;32.50;19.15;;;;;;;;;;5073192;28;20032;-70
2023/12/19 06:49:46;;;;;;;33.88;20.02;;;;;;;;;;5038794;28;20043;-70
2023/12/19 06:52:11;;;;;;;28.38;19.27;;;;;;;;;;5073285;28;20037;-69
2023/12/19 06:54:38;;;;;;;68.53;30.38;;;;;;;;;;5073067;28;20032;-69
2023/12/19 06:57:03;;;;;;;78.03;32.00;;;;;;;;;;5073277;28;20024;-69
2023/12/19 06:59:32;;;;;;;49.05;22.50;;;;;;;;;;5072679;28;20377;-69
2023/12/19 07:01:57;;;;;;;35.25;18.27;;;;;;;;;;5055363;28;20474;-70
2023/12/19 07:04:23;;;;;;;62.70;23.10;;;;;;;;;;5055172;28;20021;-68
2023/12/19 07:06:48;;;;;;;55.78;23.63;;;;;;;;;;5055239;28;20056;-68
2023/12/19 07:09:14;;;;;;;50.65;22.88;;;;;;;;;;5055047;28;20033;-70
2023/12/19 07:11:40;;;;;;;48.63;22.35;;;;;;;;;;5072313;28;20029;-69
2023/12/19 07:14:05;;;;;;;40.40;18.27;;;;;;;;;;5073335;28;20039;-69
2023/12/19 07:16:31;;;;;;;44.83;20.20;;;;;;;;;;5074760;28;20393;-70
2023/12/19 07:18:56;;;;;;;48.72;22.35;;;;;;;;;;5074895;28;20422;-68
2023/12/19 07:21:22;;;;;;;56.45;25.13;;;;;;;;;;5074780;28;20028;-69
2023/12/19 07:23:48;;;;;;;48.13;22.70;;;;;;;;;;5074653;28;20492;-69
2023/12/19 07:26:20;;;;;;;47.95;22.20;;;;;;;;;;5057181;28;20091;-70
2023/12/19 07:28:46;;;;;;;52.17;23.80;;;;;;;;;;5059103;28;20040;-69
2023/12/19 07:31:24;;;;;;;58.22;25.73;;;;;;;;;;5076889;28;20028;-70
2023/12/19 07:33:51;;;;;;;70.07;28.05;;;;;;;;;;5076542;28;20032;-70
2023/12/19 07:36:17;;;;;;;57.78;24.38;;;;;;;;;;5076764;28;20059;-69
2023/12/19 07:38:42;;;;;;;49.80;25.27;;;;;;;;;;5058675;28;20056;-70
2023/12/19 07:41:08;;;;;;;50.95;24.73;;;;;;;;;;5076441;28;20029;-70
2023/12/19 07:43:33;;;;;;;30.70;16.33;;;;;;;;;;5076907;28;20043;-69
2023/12/19 07:45:59;;;;;;;35.53;18.67;;;;;;;;;;5076646;28;20031;-69
2023/12/19 07:48:24;;;;;;;37.85;21.15;;;;;;;;;;5076607;28;20035;-70
2023/12/19 07:50:50;;;;;;;49.58;27.88;;;;;;;;;;5076521;28;20039;-69
2023/12/19 07:53:15;;;;;;;28.83;16.77;;;;;;;;;;5076231;28;20032;-70
2023/12/19 07:55:41;;;;;;;29.92;17.20;;;;;;;;;;5058194;28;20031;-68
2023/12/19 07:58:07;;;;;;;39.83;22.38;;;;;;;;;;5075969;28;20021;-69
2023/12/19 08:00:33;;;;;;;25.25;13.52;;;;;;;;;;5076138;28;20024;-69
2023/12/19 08:02:58;;;;;;;20.77;13.60;;;;;;;;;;5076288;28;20048;-70
2023/12/19 08:05:23;;;;;;;21.00;13.45;;;;;;;;;;5075920;28;20470;-69
2023/12/19 08:07:49;;;;;;;16.42;10.20;;;;;;;;;;5076068;28;20137;-70
2023/12/19 08:10:14;;;;;;;26.25;15.13;;;;;;;;;;5075746;28;20047;-69
2023/12/19 08:12:39;;;;;;;32.20;18.83;;;;;;;;;;5075819;28;20074;-69
2023/12/19 08:15:05;;;;;;;35.15;21.02;;;;;;;;;;5075707;28;20407;-69
2023/12/19 08:17:31;;;;;;;32.53;18.08;;;;;;;;;;5057966;28;20352;-70
2023/12/19 08:19:57;;;;;;;23.27;13.13;;;;;;;;;;5075901;28;20028;-69
2023/12/19 08:22:23;;;;;;;27.08;15.45;;;;;;;;;;5075797;28;20036;-69
2023/12/19 08:24:49;;;;;;;24.50;13.27;;;;;;;;;;5075239;28;20081;-69
2023/12/19 08:27:15;;;;;;;33.50;17.58;;;;;;;;;;5075679;28;20017;-69
2023/12/19 08:29:41;;;;;;;18.40;9.75;;;;;;;;;;5075959;28;20036;-71
2023/12/19 08:32:06;;;;;;;12.70;7.63;;;;;;;;;;5057518;28;20035;-70
2023/12/19 08:34:31;;;;;;;13.18;7.38;;;;;;;;;;5057822;28;20032;-69
2023/12/19 08:36:57;;;;;;;13.68;8.38;;;;;;;;;;5075340;28;20032;-70
2023/12/19 08:39:22;;;;;;;8.48;6.20;;;;;;;;;;5075361;28;20095;-69
2023/12/19 08:41:47;;;;;;;7.50;4.28;;;;;;;;;;5075315;28;20035;-69
2023/12/19 08:44:13;;;;;;;5.43;3.88;;;;;;;;;;5057453;28;20104;-70
2023/12/19 08:46:39;;;;;;;5.40;3.88;;;;;;;;;;5057286;28;20016;-70
2023/12/19 08:49:05;;;;;;;3.95;3.42;;;;;;;;;;5075195;28;20033;-70
2023/12/19 08:51:30;;;;;;;4.32;3.92;;;;;;;;;;5075235;28;20043;-70
2023/12/19 08:53:56;;;;;;;5.47;4.20;;;;;;;;;;5075076;28;20032;-70
2023/12/19 08:56:21;;;;;;;4.97;3.85;;;;;;;;;;5075008;28;20031;-70
2023/12/19 08:58:48;;;;;;;5.47;3.67;;;;;;;;;;5075370;28;20024;-70
2023/12/19 09:01:14;;;;;;;4.68;3.60;;;;;;;;;;5074903;28;20021;-69
2023/12/19 09:03:39;;;;;;;4.35;3.83;;;;;;;;;;5074863;28;20159;-70
2023/12/19 09:06:05;;;;;;;4.40;3.05;;;;;;;;;;5074725;28;20027;-69
2023/12/19 09:08:30;;;;;;;5.40;3.92;;;;;;;;;;5074603;28;20036;-70
2023/12/19 09:10:55;;;;;;;5.07;4.10;;;;;;;;;;5074652;28;20127;-70
2023/12/19 09:13:22;;;;;;;4.43;4.00;;;;;;;;;;5074602;28;20099;-70
2023/12/19 09:15:48;;;;;;;3.13;2.80;;;;;;;;;;5074523;28;20052;-69
2023/12/19 09:18:13;;;;;;;3.80;3.30;;;;;;;;;;5074544;28;20067;-70
2023/12/19 09:20:39;;;;;;;3.83;3.10;;;;;;;;;;5074568;28;20078;-70
2023/12/19 09:23:06;;;;;;;3.97;3.38;;;;;;;;;;5074506;28;20024;-69
2023/12/19 09:25:32;;;;;;;6.18;3.45;;;;;;;;;;5074413;28;20116;-70
2023/12/19 09:27:57;;;;;;;3.95;2.90;;;;;;;;;;5074406;28;20126;-69
2023/12/19 09:30:23;;;;;;;3.75;3.38;;;;;;;;;;5074272;28;20382;-69
2023/12/19 09:32:49;;;;;;;4.13;3.45;;;;;;;;;;5056478;28;20091;-70
2023/12/19 09:35:14;;;;;;;3.38;3.08;;;;;;;;;;5073901;28;20036;-70
2023/12/19 09:37:39;;;;;;;4.07;3.13;;;;;;;;;;5073741;28;20027;-70
2023/12/19 09:40:05;;;;;;;3.83;2.70;;;;;;;;;;5074120;28;20067;-69
2023/12/19 09:42:31;;;;;;;4.22;3.22;;;;;;;;;;5074139;28;20035;-69
2023/12/19 09:44:57;;;;;;;3.83;3.00;;;;;;;;;;5074013;28;20037;-69
2023/12/19 09:47:26;;;;;;;4.60;2.70;;;;;;;;;;5074046;28;20081;-70
2023/12/19 09:49:57;;;;;;;2.83;2.55;;;;;;;;;;5074067;28;20036;-69
2023/12/19 09:52:24;;;;;;;3.65;2.88;;;;;;;;;;5055965;28;20031;-70
2023/12/19 09:54:50;;;;;;;4.10;2.70;;;;;;;;;;5074017;28;20020;-70
2023/12/19 09:57:17;;;;;;;3.63;2.97;;;;;;;;;;5073875;28;20383;-70
2023/12/19 09:59:44;;;;;;;3.25;2.88;;;;;;;;;;5055896;28;20032;-69
2023/12/19 10:02:10;;;;;;;3.13;2.80;;;;;;;;;;5073900;28;20036;-69
2023/12/19 10:04:35;;;;;;;3.35;2.83;;;;;;;;;;5055741;28;20086;-71
2023/12/19 10:07:01;;;;;;;3.47;2.58;;;;;;;;;;5073948;28;20033;-69
2023/12/19 10:09:26;;;;;;;3.08;2.60;;;;;;;;;;5073563;28;20028;-69
2023/12/19 10:12:21;;;;;;;3.88;2.97;;;;;;;;;;5073771;28;20107;-70
2023/12/19 10:14:47;;;;;;;2.95;2.47;;;;;;;;;;5060312;28;20090;-70
2023/12/19 10:17:22;;;;;;;3.55;2.28;;;;;;;;;;5073666;28;20028;-70
2023/12/19 10:19:47;;;;;;;4.45;2.33;;;;;;;;;;5073619;28;20056;-70
2023/12/19 10:22:16;;;;;;;4.47;2.38;;;;;;;;;;5073641;28;20118;-69
2023/12/19 10:24:42;;;;;;;3.15;2.45;;;;;;;;;;5073782;28;20040;-70
2023/12/19 10:27:07;;;;;;;1.98;1.70;;;;;;;;;;5072695;28;20029;-70
2023/12/19 10:29:38;;;;;;;3.45;2.63;;;;;;;;;;5073587;28;20036;-70
2023/12/19 10:32:17;;;;;;;2.25;2.08;;;;;;;;;;5073547;28;20107;-70
2023/12/19 10:35:02;;;;;;;2.38;1.65;;;;;;;;;;5073708;28;20470;-69
2023/12/19 10:37:28;;;;;;;3.40;2.40;;;;;;;;;;5055205;28;20045;-69
2023/12/19 10:40:09;;;;;;;3.42;2.22;;;;;;;;;;5073476;28;20025;-70
2023/12/19 10:42:35;;;;;;;4.13;2.55;;;;;;;;;;5073568;28;20060;-69
2023/12/19 10:45:00;;;;;;;3.95;2.05;;;;;;;;;;5073438;28;20013;-68
2023/12/19 10:47:26;;;;;;;4.22;2.38;;;;;;;;;;5074612;28;20034;-69
2023/12/19 10:49:51;;;;;;;2.97;2.50;;;;;;;;;;5077440;28;20028;-70
2023/12/19 10:52:17;;;;;;;2.42;2.22;;;;;;;;;;5077434;28;20037;-69
2023/12/19 10:54:42;;;;;;;4.63;2.42;;;;;;;;;;5077307;28;20129;-70
2023/12/19 10:57:17;;;;;;;2.47;2.00;;;;;;;;;;5077347;28;20489;-70
2023/12/19 10:59:58;;;;;;;1.98;1.75;;;;;;;;;;5077475;28;20029;-70
2023/12/19 11:02:47;;;;;;;2.95;2.10;;;;;;;;;;5077286;28;20060;-70
2023/12/19 11:05:18;;;;;;;4.20;2.15;;;;;;;;;;5077171;28;20044;-70
2023/12/19 11:07:44;;;;;;;3.80;2.08;;;;;;;;;;5077097;28;20542;-70
2023/12/19 11:10:10;;;;;;;2.15;1.95;;;;;;;;;;5076953;28;20044;-70
2023/12/19 11:12:36;;;;;;;4.72;2.17;;;;;;;;;;5059078;28;20025;-70
2023/12/19 11:15:03;;;;;;;2.13;1.83;;;;;;;;;;5076844;28;20042;-70
2023/12/19 11:17:34;;;;;;;2.90;2.60;;;;;;;;;;5076889;28;20016;-70
2023/12/19 11:20:09;;;;;;;2.05;1.88;;;;;;;;;;5076800;28;20533;-70
2023/12/19 11:22:53;;;;;;;2.45;1.88;;;;;;;;;;5076836;28;20045;-71
2023/12/19 11:25:26;;;;;;;3.65;2.08;;;;;;;;;;5042190;28;20376;-70
2023/12/19 11:27:55;;;;;;;2.13;1.90;;;;;;;;;;5076691;28;20044;-69
2023/12/19 11:30:30;;;;;;;3.85;2.17;;;;;;;;;;5076748;28;20036;-69
2023/12/19 11:32:55;;;;;;;2.22;1.80;;;;;;;;;;5076843;28;20170;-70
2023/12/19 11:35:26;;;;;;;3.05;2.40;;;;;;;;;;5076682;28;20530;-70
2023/12/19 11:38:12;;;;;;;2.92;2.20;;;;;;;;;;5076507;28;20032;-70
2023/12/19 11:40:51;;;;;;;2.88;1.80;;;;;;;;;;5076325;28;20032;-70
2023/12/19 11:43:29;;;;;;;2.08;1.92;;;;;;;;;;5076529;28;20378;-70
2023/12/19 11:46:15;;;;;;;3.65;2.33;;;;;;;;;;5076321;28;20077;-70
2023/12/19 11:48:40;;;;;;;3.33;2.28;;;;;;;;;;5076339;28;20029;-70
2023/12/19 11:51:09;;;;;;;2.97;2.40;;;;;;;;;;5076230;28;20059;-70
2023/12/19 11:53:35;;;;;;;4.10;2.28;;;;;;;;;;5076498;28;20032;-70
2023/12/19 11:56:11;;;;;;;2.45;2.25;;;;;;;;;;5058270;28;20140;-69
2023/12/19 11:58:42;;;;;;;2.50;2.05;;;;;;;;;;5075401;28;20359;-69
2023/12/19 12:01:08;;;;;;;2.33;1.70;;;;;;;;;;5076156;28;20031;-69
2023/12/19 12:03:34;;;;;;;2.65;1.98;;;;;;;;;;5076110;28;20048;-70
2023/12/19 12:05:59;;;;;;;2.45;1.83;;;;;;;;;;5076020;28;20487;-70
2023/12/19 12:08:25;;;;;;;2.20;2.00;;;;;;;;;;5075752;28;20099;-69
2023/12/19 12:10:56;;;;;;;1.90;1.77;;;;;;;;;;5075900;28;20028;-70
2023/12/19 12:13:22;;;;;;;2.20;2.00;;;;;;;;;;5075858;28;20033;-69
2023/12/19 12:15:51;;;;;;;2.08;1.70;;;;;;;;;;5075898;28;20035;-69
2023/12/19 12:18:17;;;;;;;2.40;2.00;;;;;;;;;;5076009;28;20020;-72
2023/12/19 12:20:43;;;;;;;1.85;1.67;;;;;;;;;;5075708;28;20428;-69
2023/12/19 12:23:08;;;;;;;2.20;1.95;;;;;;;;;;5058275;28;20025;-70
2023/12/19 12:25:34;;;;;;;2.65;1.95;;;;;;;;;;5057678;28;20027;-69
2023/12/19 12:28:09;;;;;;;1.98;0.85;;;;;;;;;;5075566;28;20035;-70
2023/12/19 12:30:36;;;;;;;2.80;1.95;;;;;;;;;;5057523;28;20029;-69
2023/12/19 12:33:03;;;;;;;3.95;1.92;;;;;;;;;;5075553;28;20058;-70
2023/12/19 12:35:32;;;;;;;2.90;2.45;;;;;;;;;;5075360;28;20032;-70
2023/12/19 12:38:02;;;;;;;1.58;1.48;;;;;;;;;;5075732;28;20028;-70
2023/12/19 12:40:28;;;;;;;1.75;1.65;;;;;;;;;;5057492;28;20056;-70
2023/12/19 12:43:12;;;;;;;1.98;1.70;;;;;;;;;;5057494;28;20052;-70
2023/12/19 12:45:37;;;;;;;2.63;1.60;;;;;;;;;;5075422;28;20059;-69
2023/12/19 12:48:13;;;;;;;3.20;2.25;;;;;;;;;;5075207;28;20390;-70
2023/12/19 12:50:38;;;;;;;1.50;1.40;;;;;;;;;;5075214;28;20532;-70
2023/12/19 12:53:04;;;;;;;2.33;2.13;;;;;;;;;;5075052;28;20028;-70
2023/12/19 12:55:29;;;;;;;2.58;1.67;;;;;;;;;;5075005;28;20031;-70
2023/12/19 12:58:02;;;;;;;2.53;1.58;;;;;;;;;;5099606;22;20098;-70
2023/12/19 13:00:28;;;;;;;1.85;1.75;;;;;;;;;;5095221;28;20089;-71
2023/12/19 13:02:54;;;;;;;1.60;1.30;;;;;;;;;;5095181;28;20035;-71
2023/12/19 13:05:19;;;;;;;1.88;1.65;;;;;;;;;;5095138;28;20036;-72
2023/12/19 13:07:45;;;;;;;1.95;1.60;;;;;;;;;;5093802;28;20478;-70
2023/12/19 13:10:10;;;;;;;2.50;2.05;;;;;;;;;;5095555;28;20043;-72
2023/12/19 13:12:41;;;;;;;1.90;1.58;;;;;;;;;;5095317;28;20423;-72
2023/12/19 13:15:07;;;;;;;3.40;2.20;;;;;;;;;;5076641;28;20036;-72
2023/12/19 13:17:33;;;;;;;2.63;2.20;;;;;;;;;;5095189;28;20024;-72
2023/12/19 13:19:58;;;;;;;3.28;2.10;;;;;;;;;;5076799;28;20032;-72
2023/12/19 13:22:25;;;;;;;2.45;1.90;;;;;;;;;;5094882;28;20028;-72
2023/12/19 13:24:51;;;;;;;2.75;1.95;;;;;;;;;;5075737;28;20059;-71
2023/12/19 13:27:16;;;;;;;2.28;1.92;;;;;;;;;;5075625;28;20359;-71
2023/12/19 13:29:42;;;;;;;3.08;1.98;;;;;;;;;;5093610;28;20032;-72
2023/12/19 13:32:07;;;;;;;2.03;1.25;;;;;;;;;;5093615;28;20032;-71
2023/12/19 13:34:33;;;;;;;2.40;2.13;;;;;;;;;;5075407;28;20020;-72
2023/12/19 13:36:58;;;;;;;3.13;2.40;;;;;;;;;;5093689;28;20111;-72
2023/12/19 13:39:24;;;;;;;2.30;2.05;;;;;;;;;;5093462;28;20028;-72
2023/12/19 13:41:52;;;;;;;5.00;2.80;;;;;;;;;;5075434;28;20044;-72
2023/12/19 13:44:17;;;;;;;4.43;2.97;;;;;;;;;;5075751;28;20336;-72
2023/12/19 13:46:42;;;;;;;4.57;2.97;;;;;;;;;;5093433;28;20040;-72
2023/12/19 13:49:08;;;;;;;6.35;5.13;;;;;;;;;;5093438;28;20031;-72
2023/12/19 13:51:34;;;;;;;6.32;4.18;;;;;;;;;;5093244;28;20028;-71
2023/12/19 13:53:59;;;;;;;4.03;3.33;;;;;;;;;;5093268;28;20040;-71
2023/12/19 13:56:25;;;;;;;3.97;2.47;;;;;;;;;;5093104;28;20024;-72
2023/12/19 13:58:50;;;;;;;2.72;2.35;;;;;;;;;;5091652;28;20040;-74
2023/12/19 14:01:16;;;;;;;2.55;2.35;;;;;;;;;;5075037;28;20032;-73
2023/12/19 14:03:41;;;;;;;4.88;3.03;;;;;;;;;;5074890;28;20031;-74
2023/12/19 14:06:06;;;;;;;3.13;2.33;;;;;;;;;;5094079;28;20031;-73
2023/12/19 14:08:32;;;;;;;1.85;1.67;;;;;;;;;;5093436;28;20095;-72
2023/12/19 14:10:57;;;;;;;4.93;1.98;;;;;;;;;;5091933;28;20031;-73
2023/12/19 14:13:22;;;;;;;3.92;2.40;;;;;;;;;;5073744;28;20032;-72
2023/12/19 14:15:53;;;;;;;4.18;2.72;;;;;;;;;;5073940;28;20036;-72
2023/12/19 14:18:19;;;;;;;3.60;2.65;;;;;;;;;;5092084;28;20030;-74
2023/12/19 14:20:44;;;;;;;3.65;2.75;;;;;;;;;;5092000;28;20464;-72
2023/12/19 14:23:09;;;;;;;3.60;2.42;;;;;;;;;;5091617;28;20376;-72
2023/12/19 14:25:35;;;;;;;3.53;2.50;;;;;;;;;;5074557;28;20031;-72
2023/12/19 14:28:00;;;;;;;2.15;1.80;;;;;;;;;;5093719;28;20063;-72